Time;durP1;ratioP1;P1;durP2;ratioP2;P2;SDS_P1;SDS_P2;PMS_P1;PMS_P2;Temp;Humidity;BMP_temperature;BMP_pressure;BME280_temperature;BME280_humidity;BME280_pressure;Samples;Min_cycle;Max_cycle;Signal;HPM_P1;HPM_P2
2021/03/29 00:01:42;;;;;;;16.80;10.30;;;8.30;99.90;;;;;;4163760;28;20026;-79
2021/03/29 00:03:43;;;;;;;17.42;10.85;;;8.30;99.90;;;;;;4147187;28;20117;-79
2021/03/29 00:05:44;;;;;;;17.70;11.00;;;8.20;99.90;;;;;;4163109;28;20034;-79
2021/03/29 00:07:50;;;;;;;17.92;10.73;;;8.20;99.90;;;;;;4164622;28;20447;-79
2021/03/29 00:09:51;;;;;;;15.90;11.18;;;8.30;99.90;;;;;;4165018;28;20033;-78
2021/03/29 00:11:54;;;;;;;16.08;10.02;;;8.30;99.90;;;;;;4138844;28;20029;-78
2021/03/29 00:13:56;;;;;;;22.58;11.90;;;8.40;99.90;;;;;;4150825;28;20029;-79
2021/03/29 00:15:58;;;;;;;20.90;12.32;;;8.40;99.90;;;;;;4147475;28;20124;-79
2021/03/29 00:17:59;;;;;;;18.63;12.77;;;8.30;99.90;;;;;;4164680;28;20045;-79
2021/03/29 00:20:06;;;;;;;17.88;11.27;;;8.30;99.90;;;;;;4147495;28;20501;-78
2021/03/29 00:22:06;;;;;;;20.60;12.93;;;8.30;99.90;;;;;;4146244;28;20042;-79
2021/03/29 00:24:08;;;;;;;23.90;12.52;;;8.30;99.90;;;;;;4152303;28;20022;-78
2021/03/29 00:26:10;;;;;;;14.07;12.38;;;8.40;99.90;;;;;;4140931;28;20509;-79
2021/03/29 00:28:11;;;;;;;19.63;12.05;;;8.30;99.90;;;;;;4157139;28;20087;-79
2021/03/29 00:30:25;;;;;;;22.58;12.00;;;8.30;99.90;;;;;;4147694;28;20038;-78
2021/03/29 00:32:26;;;;;;;22.63;14.25;;;8.20;99.90;;;;;;4165676;28;20431;-78
2021/03/29 00:34:28;;;;;;;18.80;12.60;;;8.30;99.90;;;;;;4163606;28;20085;-77
2021/03/29 00:36:29;;;;;;;15.55;12.50;;;8.20;99.90;;;;;;4162789;28;20084;-78
2021/03/29 00:38:31;;;;;;;21.58;12.27;;;8.20;99.90;;;;;;4152448;28;20117;-78
2021/03/29 00:40:32;;;;;;;18.98;12.57;;;8.10;99.90;;;;;;4134119;28;20131;-78
2021/03/29 00:42:35;;;;;;;22.27;13.90;;;8.00;99.90;;;;;;4128731;28;20038;-78
2021/03/29 00:44:35;;;;;;;19.15;12.48;;;8.00;99.90;;;;;;4148268;28;20388;-78
2021/03/29 00:46:41;;;;;;;19.75;12.85;;;7.90;99.90;;;;;;4151563;28;20034;-78
2021/03/29 00:48:43;;;;;;;19.67;12.43;;;7.90;99.90;;;;;;4155785;28;20026;-79
2021/03/29 00:51:08;;;;;;;20.27;12.75;;;7.90;99.90;;;;;;4163201;28;20133;-79
2021/03/29 00:53:11;;;;;;;18.42;12.27;;;7.80;99.90;;;;;;4142509;28;20077;-79
2021/03/29 00:55:13;;;;;;;23.98;12.43;;;7.80;99.90;;;;;;4162818;28;20025;-78
2021/03/29 00:57:15;;;;;;;26.48;12.63;;;7.80;99.90;;;;;;4163273;28;20018;-80
2021/03/29 00:59:17;;;;;;;23.20;11.77;;;7.80;99.90;;;;;;4164818;28;20083;-78
2021/03/29 01:01:21;;;;;;;19.17;11.60;;;7.80;99.90;;;;;;4164281;28;20438;-79
2021/03/29 01:03:32;;;;;;;27.85;12.63;;;7.80;99.90;;;;;;4164611;28;20022;-79
2021/03/29 01:05:33;;;;;;;18.13;11.20;;;7.80;99.90;;;;;;4163843;28;20491;-78
2021/03/29 01:07:34;;;;;;;20.35;10.95;;;7.80;99.90;;;;;;4164421;28;20030;-80
2021/03/29 01:09:34;;;;;;;17.17;10.68;;;7.90;99.90;;;;;;4164492;28;20095;-78
2021/03/29 01:11:44;;;;;;;23.52;12.75;;;7.90;99.90;;;;;;4163230;28;20733;-79
2021/03/29 01:13:52;;;;;;;25.30;11.25;;;7.90;99.90;;;;;;4160552;28;20033;-79
2021/03/29 01:15:55;;;;;;;18.83;11.23;;;8.00;99.90;;;;;;4145942;28;20029;-79
2021/03/29 01:17:58;;;;;;;18.48;10.18;;;7.90;99.90;;;;;;4156843;28;20046;-79
2021/03/29 01:20:01;;;;;;;19.33;10.73;;;7.80;99.90;;;;;;4157174;28;20029;-78
2021/03/29 01:22:03;;;;;;;;;;;7.80;99.90;;;;;;4146420;28;20034;-78
2021/03/29 01:24:29;;;;;;;20.75;10.27;;;7.90;99.90;;;;;;4163639;28;19913;-79
2021/03/29 01:26:40;;;;;;;21.88;9.93;;;7.90;99.90;;;;;;4163556;28;20045;-79
2021/03/29 01:28:42;;;;;;;20.00;9.85;;;7.80;99.90;;;;;;4151257;28;20025;-79
2021/03/29 01:30:44;;;;;;;18.20;9.57;;;7.80;99.90;;;;;;4163633;28;20120;-79
2021/03/29 01:32:47;;;;;;;18.02;9.07;;;7.80;99.90;;;;;;4145879;28;20038;-79
2021/03/29 01:34:49;;;;;;;19.48;9.98;;;7.70;99.90;;;;;;4163522;28;20060;-78
2021/03/29 01:36:49;;;;;;;15.65;8.63;;;7.70;99.90;;;;;;4145704;28;20073;-79
2021/03/29 01:38:51;;;;;;;19.63;9.38;;;7.70;99.90;;;;;;4162845;28;20385;-81
2021/03/29 01:40:53;;;;;;;19.90;10.10;;;7.70;99.90;;;;;;4145925;28;20113;-78
2021/03/29 01:42:55;;;;;;;20.60;9.68;;;7.70;99.90;;;;;;4163388;28;20030;-78
2021/03/29 01:44:56;;;;;;;15.93;9.50;;;7.60;99.90;;;;;;4145742;28;20038;-78
2021/03/29 01:46:58;;;;;;;18.27;8.77;;;7.50;99.90;;;;;;4162688;28;20038;-81
2021/03/29 01:48:59;;;;;;;18.00;9.85;;;7.50;99.90;;;;;;4163159;28;20029;-80
2021/03/29 01:51:00;;;;;;;18.08;9.65;;;7.70;99.90;;;;;;4163377;28;20021;-78
2021/03/29 01:53:02;;;;;;;14.18;8.93;;;7.60;99.90;;;;;;4158219;28;20038;-78
2021/03/29 01:55:06;;;;;;;23.75;9.02;;;7.60;99.90;;;;;;4161760;28;20063;-79
2021/03/29 01:57:10;;;;;;;19.35;8.80;;;7.60;99.90;;;;;;4163727;28;20060;-80
2021/03/29 01:59:11;;;;;;;15.30;8.73;;;7.60;99.90;;;;;;4162887;28;20360;-78
2021/03/29 02:01:12;;;;;;;17.42;8.65;;;7.60;99.90;;;;;;4163115;28;20112;-79
2021/03/29 02:03:13;;;;;;;26.40;10.38;;;7.60;99.90;;;;;;4145703;28;20030;-79
2021/03/29 02:05:16;;;;;;;16.95;8.90;;;7.50;99.90;;;;;;4163138;28;20025;-78
2021/03/29 02:07:19;;;;;;;18.08;9.35;;;7.50;99.90;;;;;;4163208;28;20021;-79
2021/03/29 02:09:20;;;;;;;18.17;9.45;;;7.50;99.90;;;;;;4145770;28;20018;-79
2021/03/29 02:11:22;;;;;;;20.08;10.45;;;7.40;99.90;;;;;;4163635;28;20099;-79
2021/03/29 02:13:27;;;;;;;21.50;8.15;;;7.40;99.90;;;;;;4163455;28;20100;-79
2021/03/29 02:15:30;;;;;;;22.25;9.25;;;7.50;99.90;;;;;;4163218;28;20037;-79
2021/03/29 02:17:31;;;;;;;17.95;8.95;;;7.40;99.90;;;;;;4163074;28;20038;-79
2021/03/29 02:19:33;;;;;;;13.88;8.73;;;7.40;99.90;;;;;;4163737;28;20033;-79
2021/03/29 02:21:40;;;;;;;17.65;9.50;;;7.40;99.90;;;;;;4163521;28;20026;-79
2021/03/29 02:23:42;;;;;;;16.13;8.60;;;7.40;99.90;;;;;;4145951;28;20458;-79
2021/03/29 02:25:46;;;;;;;26.00;10.77;;;7.40;99.90;;;;;;4163333;28;20071;-78
2021/03/29 02:27:48;;;;;;;19.60;9.02;;;7.40;99.90;;;;;;4162774;28;20040;-78
2021/03/29 02:29:51;;;;;;;34.70;10.98;;;7.40;99.90;;;;;;4145357;28;20157;-79
2021/03/29 02:31:53;;;;;;;19.25;8.40;;;7.40;99.90;;;;;;4145669;28;20088;-78
2021/03/29 02:33:57;;;;;;;19.63;8.50;;;7.40;99.90;;;;;;4163328;28;20160;-78
2021/03/29 02:35:58;;;;;;;16.95;7.80;;;7.40;99.90;;;;;;4145406;28;20068;-79
2021/03/29 02:37:59;;;;;;;19.45;8.77;;;7.50;99.90;;;;;;4162649;28;20092;-79
2021/03/29 02:40:00;;;;;;;19.88;8.70;;;7.60;99.90;;;;;;4163326;28;20042;-79
2021/03/29 02:42:01;;;;;;;15.93;7.82;;;7.60;99.90;;;;;;4162769;28;20045;-78
2021/03/29 02:44:02;;;;;;;20.90;9.48;;;7.60;99.90;;;;;;4163157;28;20034;-78
2021/03/29 02:46:05;;;;;;;23.05;8.60;;;7.60;99.90;;;;;;4139814;28;20117;-79
2021/03/29 02:48:08;;;;;;;16.15;7.50;;;7.60;99.90;;;;;;4162620;28;20026;-79
2021/03/29 02:50:16;;;;;;;17.80;7.97;;;7.60;99.90;;;;;;4162764;28;20128;-78
2021/03/29 02:52:17;;;;;;;13.75;7.70;;;7.60;99.90;;;;;;4145567;28;20037;-79
2021/03/29 02:54:21;;;;;;;15.38;7.75;;;7.60;99.90;;;;;;4145571;28;20030;-79
2021/03/29 02:56:26;;;;;;;15.43;8.70;;;7.70;99.90;;;;;;4163349;28;20033;-79
2021/03/29 02:58:29;;;;;;;19.65;9.70;;;7.70;99.90;;;;;;4162724;28;20443;-79
2021/03/29 03:00:32;;;;;;;12.82;7.07;;;7.70;99.90;;;;;;4145258;28;20547;-79
2021/03/29 03:02:34;;;;;;;21.58;9.20;;;7.70;99.90;;;;;;4145052;28;20030;-79
2021/03/29 03:04:34;;;;;;;15.77;8.48;;;7.80;99.90;;;;;;4163216;28;20503;-79
2021/03/29 03:06:35;;;;;;;19.60;7.30;;;7.80;99.90;;;;;;4145113;28;20069;-78
2021/03/29 03:08:38;;;;;;;17.48;8.15;;;7.80;99.90;;;;;;4145409;28;20512;-78
2021/03/29 03:10:39;;;;;;;12.52;7.32;;;7.80;99.90;;;;;;4162874;28;20032;-79
2021/03/29 03:12:49;;;;;;;13.85;6.47;;;7.90;99.90;;;;;;4152300;28;20777;-78
2021/03/29 03:14:50;;;;;;;19.48;8.20;;;7.90;99.90;;;;;;4145129;28;20034;-79
2021/03/29 03:16:51;;;;;;;14.57;7.60;;;7.90;99.90;;;;;;4162685;28;20064;-79
2021/03/29 03:18:52;;;;;;;19.00;8.48;;;7.80;99.90;;;;;;4144690;28;20424;-79
2021/03/29 03:20:52;;;;;;;18.30;7.78;;;7.80;99.90;;;;;;4145161;28;20045;-80
2021/03/29 03:23:08;;;;;;;18.15;7.93;;;7.80;99.90;;;;;;4136024;28;20484;-80
2021/03/29 03:25:29;;;;;;;15.55;7.22;;;7.90;99.90;;;;;;4149613;28;20504;-79
2021/03/29 03:27:29;;;;;;;14.65;7.28;;;7.90;99.90;;;;;;4138619;28;20593;-80
2021/03/29 03:29:32;;;;;;;15.52;7.00;;;7.90;99.90;;;;;;4162509;28;20028;-79
2021/03/29 03:31:33;;;;;;;14.63;6.38;;;8.00;99.90;;;;;;4144820;28;20141;-79
2021/03/29 03:33:34;;;;;;;13.27;6.72;;;8.10;99.90;;;;;;4162968;28;20099;-79
2021/03/29 03:35:36;;;;;;;16.73;7.47;;;8.20;99.90;;;;;;4162237;28;20069;-79
2021/03/29 03:37:39;;;;;;;10.03;6.53;;;8.20;99.90;;;;;;4162839;28;20041;-79
2021/03/29 03:39:41;;;;;;;15.55;6.63;;;8.10;99.90;;;;;;4162362;28;20029;-79
2021/03/29 03:41:43;;;;;;;11.40;6.68;;;8.10;99.90;;;;;;4144856;28;20026;-79
2021/03/29 03:43:55;;;;;;;17.25;7.22;;;8.00;99.90;;;;;;4162629;28;20033;-78
2021/03/29 03:46:07;;;;;;;19.48;8.30;;;8.00;99.90;;;;;;4162262;28;20061;-80
2021/03/29 03:48:09;;;;;;;15.38;7.95;;;7.90;99.90;;;;;;4161966;28;20036;-79
2021/03/29 03:50:12;;;;;;;17.50;7.13;;;8.10;99.90;;;;;;4163074;28;20064;-79
2021/03/29 03:52:14;;;;;;;17.38;7.93;;;8.00;99.90;;;;;;4145176;28;20034;-79
2021/03/29 03:54:16;;;;;;;17.85;6.93;;;7.90;99.90;;;;;;4144597;28;20099;-79
2021/03/29 03:56:16;;;;;;;14.27;7.82;;;7.90;99.90;;;;;;4162713;28;20022;-79
2021/03/29 03:58:18;;;;;;;16.38;7.80;;;7.90;99.90;;;;;;4162665;28;20104;-79
2021/03/29 04:00:21;;;;;;;19.30;7.22;;;7.90;99.90;;;;;;4129085;28;20061;-79
2021/03/29 04:02:22;;;;;;;16.83;6.97;;;7.90;99.90;;;;;;4147639;28;20034;-80
2021/03/29 04:04:22;;;;;;;12.55;7.10;;;7.90;99.90;;;;;;4165714;28;20036;-79
2021/03/29 04:06:23;;;;;;;16.88;7.03;;;8.00;99.90;;;;;;4147603;28;20161;-79
2021/03/29 04:08:23;;;;;;;13.82;6.85;;;8.20;99.90;;;;;;4165332;28;20499;-79
2021/03/29 04:10:36;;;;;;;18.67;8.18;;;8.20;99.90;;;;;;4165234;28;20112;-79
2021/03/29 04:12:36;;;;;;;11.05;6.63;;;8.20;99.90;;;;;;4165176;28;20041;-79
2021/03/29 04:14:38;;;;;;;22.98;7.38;;;8.20;99.90;;;;;;4153945;28;20045;-79
2021/03/29 04:16:39;;;;;;;18.40;6.88;;;8.20;99.90;;;;;;4145276;28;20033;-79
2021/03/29 04:18:39;;;;;;;15.63;9.13;;;8.20;99.90;;;;;;4165013;28;20045;-80
2021/03/29 04:20:40;;;;;;;17.73;7.88;;;8.20;99.90;;;;;;4165242;28;20040;-79
2021/03/29 04:22:41;;;;;;;16.25;6.85;;;8.20;99.90;;;;;;4147342;28;20504;-79
2021/03/29 04:24:42;;;;;;;14.98;7.50;;;8.10;99.90;;;;;;4147456;28;20115;-79
2021/03/29 04:26:42;;;;;;;14.15;7.05;;;8.10;99.90;;;;;;4147360;28;20030;-79
2021/03/29 04:28:43;;;;;;;16.60;7.95;;;8.20;99.90;;;;;;4147102;28;20030;-79
2021/03/29 04:30:44;;;;;;;12.57;6.50;;;8.30;99.90;;;;;;4164783;28;20029;-78
2021/03/29 04:32:52;;;;;;;14.27;6.85;;;8.30;99.90;;;;;;4147316;28;20552;-78
2021/03/29 04:34:52;;;;;;;11.35;6.18;;;8.40;99.90;;;;;;4137207;28;20159;-78
2021/03/29 04:36:53;;;;;;;16.20;7.15;;;8.40;99.90;;;;;;4144096;28;20030;-78
2021/03/29 04:38:54;;;;;;;13.63;8.40;;;8.40;99.90;;;;;;4145920;28;20045;-78
2021/03/29 04:40:54;;;;;;;14.43;7.18;;;8.40;99.90;;;;;;4163294;28;20499;-78
2021/03/29 04:42:55;;;;;;;14.80;7.43;;;8.30;99.90;;;;;;4163705;28;20025;-79
2021/03/29 04:44:56;;;;;;;14.05;7.07;;;8.20;99.90;;;;;;4161443;28;20444;-79
2021/03/29 04:46:57;;;;;;;11.93;6.88;;;8.10;99.90;;;;;;4158562;28;20026;-78
2021/03/29 04:48:57;;;;;;;19.40;7.90;;;8.00;99.90;;;;;;4147602;28;20046;-79
2021/03/29 04:50:58;;;;;;;19.02;7.28;;;8.00;99.90;;;;;;4163694;28;20029;-79
2021/03/29 04:52:58;;;;;;;16.17;7.15;;;7.90;99.90;;;;;;4145940;28;20049;-79
2021/03/29 04:54:59;;;;;;;14.30;8.38;;;7.90;99.90;;;;;;4146016;28;20045;-79
2021/03/29 04:57:00;;;;;;;20.48;9.13;;;7.90;99.90;;;;;;4163603;28;20029;-79
2021/03/29 04:59:01;;;;;;;17.23;7.18;;;7.80;99.90;;;;;;4147525;28;20026;-79
2021/03/29 05:01:01;;;;;;;14.50;7.13;;;7.70;99.90;;;;;;4157442;28;20126;-78
2021/03/29 05:03:02;;;;;;;15.57;6.65;;;7.70;99.90;;;;;;4164413;28;20017;-77
2021/03/29 05:05:04;;;;;;;17.27;7.30;;;7.70;99.90;;;;;;4146607;28;20034;-78
2021/03/29 05:07:09;;;;;;;15.10;7.45;;;7.80;99.90;;;;;;4163676;28;20028;-78
2021/03/29 05:09:09;;;;;;;12.88;7.38;;;7.80;99.90;;;;;;4145902;28;20453;-79
2021/03/29 05:11:11;;;;;;;15.45;6.70;;;7.80;99.90;;;;;;4163348;28;20141;-79
2021/03/29 05:13:12;;;;;;;26.55;8.38;;;7.70;99.90;;;;;;4145925;28;20090;-78
2021/03/29 05:15:13;;;;;;;14.80;7.78;;;7.60;99.90;;;;;;4146048;28;20064;-78
2021/03/29 05:17:14;;;;;;;12.25;7.22;;;7.50;99.90;;;;;;4162538;28;20053;-79
2021/03/29 05:19:14;;;;;;;11.70;6.40;;;7.50;99.90;;;;;;4163019;28;20377;-78
2021/03/29 05:21:15;;;;;;;16.30;7.43;;;7.50;99.90;;;;;;4163395;28;20488;-78
2021/03/29 05:23:16;;;;;;;16.13;6.85;;;7.50;99.90;;;;;;4148724;28;20094;-79
2021/03/29 05:25:16;;;;;;;13.10;7.50;;;7.70;99.90;;;;;;4162648;28;20021;-79
2021/03/29 05:27:17;;;;;;;16.20;6.90;;;7.80;99.90;;;;;;4163670;28;20095;-78
2021/03/29 05:29:18;;;;;;;14.38;7.72;;;7.80;99.90;;;;;;4163855;28;20096;-78
2021/03/29 05:31:19;;;;;;;15.85;7.20;;;7.90;99.90;;;;;;4146586;28;20032;-79
2021/03/29 05:33:19;;;;;;;14.13;7.53;;;7.90;99.90;;;;;;4164204;28;20033;-78
2021/03/29 05:35:20;;;;;;;19.65;7.22;;;7.90;99.90;;;;;;4163797;28;20033;-79
2021/03/29 05:37:21;;;;;;;11.35;6.53;;;7.90;99.90;;;;;;4160809;28;20038;-78
2021/03/29 05:39:22;;;;;;;18.77;8.10;;;8.00;99.90;;;;;;4163852;28;20606;-78
2021/03/29 05:41:23;;;;;;;17.70;7.10;;;8.00;99.90;;;;;;4145033;28;20089;-79
2021/03/29 05:43:24;;;;;;;17.33;7.38;;;8.00;99.90;;;;;;4164555;28;20030;-79
2021/03/29 05:45:30;;;;;;;22.27;8.23;;;8.10;99.90;;;;;;4146884;28;20045;-79
2021/03/29 05:47:31;;;;;;;13.95;6.60;;;8.10;99.90;;;;;;4163166;28;20034;-77
2021/03/29 05:49:34;;;;;;;17.08;7.32;;;8.10;99.90;;;;;;4146274;28;20084;-79
2021/03/29 05:51:37;;;;;;;18.63;7.70;;;8.10;99.90;;;;;;4164144;28;20041;-77
2021/03/29 05:53:38;;;;;;;17.50;6.78;;;8.10;99.90;;;;;;4146021;28;20121;-78
2021/03/29 05:55:41;;;;;;;17.90;7.57;;;8.10;99.90;;;;;;4145731;28;20038;-78
2021/03/29 05:59:49;;;;;;;11.00;7.28;;;8.10;99.90;;;;;;4160587;28;20120;-78
2021/03/29 06:01:55;;;;;;;14.27;8.38;;;8.10;99.90;;;;;;4145452;28;20445;-79
2021/03/29 06:03:56;;;;;;;11.45;6.38;;;8.10;99.90;;;;;;4163107;28;20033;-79
2021/03/29 06:06:21;;;;;;;10.93;7.40;;;8.10;99.90;;;;;;4162576;28;20056;-78
2021/03/29 06:08:22;;;;;;;15.23;6.53;;;8.10;99.90;;;;;;4161466;28;20092;-78
2021/03/29 06:10:34;;;;;;;18.30;6.78;;;8.20;99.90;;;;;;4153523;28;20118;-78
2021/03/29 06:12:43;;;;;;;20.13;7.40;;;8.30;99.90;;;;;;4159854;28;20056;-79
2021/03/29 06:14:45;;;;;;;12.43;7.05;;;8.30;99.90;;;;;;4164803;28;20037;-78
2021/03/29 06:17:02;;;;;;;15.23;6.45;;;8.30;99.90;;;;;;4163223;28;20068;-78
2021/03/29 06:19:03;;;;;;;16.95;6.65;;;8.30;99.90;;;;;;4163842;28;20038;-78
2021/03/29 06:21:07;;;;;;;11.13;7.53;;;8.30;99.90;;;;;;4164483;28;20040;-78
2021/03/29 06:23:10;;;;;;;13.00;6.35;;;8.30;99.90;;;;;;4145321;28;20030;-79
2021/03/29 06:25:21;;;;;;;13.55;6.22;;;8.40;99.90;;;;;;4147022;28;20061;-79
2021/03/29 06:27:25;;;;;;;15.55;6.95;;;8.50;99.90;;;;;;4142201;28;20053;-79
2021/03/29 06:29:26;;;;;;;17.60;7.85;;;8.50;99.90;;;;;;4141189;28;20079;-81
2021/03/29 06:31:28;;;;;;;19.20;6.97;;;8.50;99.90;;;;;;4153353;28;20109;-81
2021/03/29 06:33:30;;;;;;;18.27;7.50;;;8.60;99.90;;;;;;4157027;28;20030;-80
2021/03/29 06:35:37;;;;;;;15.63;7.27;;;8.60;99.90;;;;;;4161662;28;20030;-79
2021/03/29 06:37:37;;;;;;;15.70;6.57;;;8.60;99.90;;;;;;4156513;28;20072;-80
2021/03/29 06:39:41;;;;;;;15.23;7.50;;;8.60;99.90;;;;;;4161473;28;20041;-80
2021/03/29 06:41:51;;;;;;;12.45;6.20;;;8.70;99.90;;;;;;4160867;28;20103;-80
2021/03/29 06:43:53;;;;;;;11.27;6.38;;;8.70;99.90;;;;;;4160075;28;20061;-79
2021/03/29 06:45:59;;;;;;;12.85;6.72;;;8.70;99.90;;;;;;4142346;28;20045;-79
2021/03/29 06:47:59;;;;;;;18.45;6.68;;;8.80;99.90;;;;;;4157486;28;20060;-80
2021/03/29 06:50:00;;;;;;;12.00;6.30;;;8.80;99.90;;;;;;4147928;28;20038;-79
2021/03/29 06:52:01;;;;;;;13.80;6.97;;;8.80;99.90;;;;;;4143497;28;20118;-77
2021/03/29 06:54:05;;;;;;;11.70;7.10;;;8.80;99.90;;;;;;4142000;28;20052;-77
2021/03/29 06:56:27;;;;;;;15.57;6.78;;;8.80;99.90;;;;;;4158122;28;20032;-80
2021/03/29 06:58:27;;;;;;;20.85;10.02;;;8.80;99.90;;;;;;4161951;28;20061;-81
2021/03/29 07:00:33;;;;;;;17.88;6.78;;;8.80;99.90;;;;;;4161325;28;20132;-80
2021/03/29 07:02:38;;;;;;;12.82;7.05;;;8.80;99.90;;;;;;4161226;28;20477;-80
2021/03/29 07:04:39;;;;;;;13.88;7.65;;;8.80;99.90;;;;;;4158004;28;20041;-80
2021/03/29 07:06:42;;;;;;;16.65;7.35;;;8.80;99.90;;;;;;4137320;28;20663;-80
2021/03/29 07:08:45;;;;;;;18.83;6.57;;;8.80;99.90;;;;;;4144338;28;20034;-80
2021/03/29 07:10:46;;;;;;;13.80;6.25;;;8.80;99.90;;;;;;4161418;28;20029;-79
2021/03/29 07:12:48;;;;;;;14.10;7.13;;;8.90;99.90;;;;;;4146047;28;20541;-80
2021/03/29 07:14:51;;;;;;;14.90;7.05;;;9.00;99.90;;;;;;4162180;28;20037;-79
2021/03/29 07:16:54;;;;;;;18.08;7.63;;;9.10;99.90;;;;;;4144062;28;20026;-80
2021/03/29 07:18:56;;;;;;;;;;;9.10;99.90;;;;;;4162287;28;20045;-80
2021/03/29 07:20:57;;;;;;;10.10;6.68;;;9.10;99.90;;;;;;4162640;28;20430;-80
2021/03/29 07:22:57;;;;;;;16.60;8.23;;;9.10;99.90;;;;;;4152554;28;20042;-81
2021/03/29 07:25:04;;;;;;;18.38;8.18;;;9.10;99.90;;;;;;4158496;28;20132;-81
2021/03/29 07:27:06;;;;;;;15.50;6.80;;;9.20;99.90;;;;;;4161167;28;20037;-80
2021/03/29 07:29:32;;;;;;;21.85;8.02;;;9.30;99.90;;;;;;4173139;28;20049;-80
2021/03/29 07:31:41;;;;;;;13.85;6.55;;;9.50;99.90;;;;;;4134124;28;20118;-80
2021/03/29 07:33:57;;;;;;;14.05;6.75;;;9.60;99.90;;;;;;4144212;28;20117;-81
2021/03/29 07:35:58;;;;;;;13.55;6.28;;;9.70;99.90;;;;;;4164539;28;20075;-80
2021/03/29 07:37:59;;;;;;;14.70;6.38;;;9.70;99.90;;;;;;4140815;28;20556;-81
2021/03/29 07:40:06;;;;;;;18.40;7.03;;;9.90;99.90;;;;;;4148328;28;20037;-80
2021/03/29 07:42:25;;;;;;;18.67;6.75;;;10.00;99.90;;;;;;4150050;28;20034;-80
2021/03/29 07:44:26;;;;;;;11.73;6.03;;;10.20;99.90;;;;;;4162677;28;20037;-80
2021/03/29 07:46:41;;;;;;;14.35;7.40;;;10.20;99.90;;;;;;4147422;28;20096;-81
2021/03/29 07:48:44;;;;;;;12.68;6.15;;;10.30;99.90;;;;;;4152815;28;20048;-80
2021/03/29 07:50:46;;;;;;;;;;;10.40;99.90;;;;;;4162978;28;20144;-80
2021/03/29 07:52:49;;;;;;;16.92;5.80;;;10.50;99.90;;;;;;4144610;28;20363;-81
2021/03/29 07:54:51;;;;;;;12.93;6.57;;;10.50;99.90;;;;;;4165055;28;20120;-80
2021/03/29 07:56:51;;;;;;;15.43;6.55;;;10.60;99.90;;;;;;4165937;28;20133;-80
2021/03/29 07:58:53;;;;;;;18.45;5.85;;;10.70;99.90;;;;;;4145686;28;20044;-81
2021/03/29 08:01:02;;;;;;;15.77;6.50;;;10.70;99.90;;;;;;4164251;28;20384;-80
2021/03/29 08:03:12;;;;;;;13.77;5.63;;;10.80;99.90;;;;;;4149615;28;20030;-81
2021/03/29 08:05:15;;;;;;;11.45;5.70;;;10.80;99.90;;;;;;4147078;28;20033;-80
2021/03/29 08:07:38;;;;;;;9.95;6.05;;;10.90;99.90;;;;;;4147322;28;20505;-80
2021/03/29 08:09:42;;;;;;;14.18;5.90;;;10.90;99.90;;;;;;4165676;28;20030;-80
2021/03/29 08:12:05;;;;;;;19.95;6.70;;;10.90;99.90;;;;;;4148769;28;20065;-79
2021/03/29 08:14:31;;;;;;;9.45;5.32;;;11.00;99.90;;;;;;4149068;28;20508;-79
2021/03/29 08:16:31;;;;;;;14.68;6.32;;;11.10;99.90;;;;;;4144423;28;20209;-80
2021/03/29 08:19:10;;;;;;;14.35;7.05;;;11.10;99.90;;;;;;4163976;28;20086;-81
2021/03/29 08:21:46;;;;;;;14.00;5.53;;;11.20;99.90;;;;;;4163017;28;20037;-80
2021/03/29 08:23:47;;;;;;;11.88;5.50;;;11.20;99.90;;;;;;4162270;28;20095;-80
2021/03/29 08:26:08;;;;;;;13.52;6.47;;;11.30;99.90;;;;;;4162374;28;20033;-80
2021/03/29 08:28:09;;;;;;;16.35;6.03;;;11.30;99.90;;;;;;4161948;28;20037;-80
2021/03/29 08:30:13;;;;;;;13.02;6.80;;;11.40;99.90;;;;;;4146339;28;20034;-80
2021/03/29 08:32:31;;;;;;;12.02;6.32;;;11.40;99.90;;;;;;4146213;28;20064;-80
2021/03/29 08:34:59;;;;;;;16.05;6.85;;;11.40;99.90;;;;;;4142568;28;20511;-80
2021/03/29 08:37:07;;;;;;;11.93;6.03;;;11.60;99.90;;;;;;4166487;28;20480;-80
2021/03/29 08:39:08;;;;;;;17.60;6.90;;;11.60;99.90;;;;;;4158522;28;20022;-79
2021/03/29 08:41:15;;;;;;;16.33;7.00;;;11.70;99.90;;;;;;4163085;28;20033;-80
2021/03/29 08:43:16;;;;;;;18.27;6.57;;;11.70;99.90;;;;;;4140067;28;20026;-80
2021/03/29 08:45:24;;;;;;;11.38;5.82;;;11.80;99.90;;;;;;4159367;28;20091;-80
2021/03/29 08:47:26;;;;;;;14.05;6.05;;;11.80;99.90;;;;;;4160928;28;20064;-80
2021/03/29 08:49:27;;;;;;;16.15;7.18;;;11.80;99.90;;;;;;4145971;28;20030;-81
2021/03/29 08:51:27;;;;;;;13.10;6.57;;;11.90;99.90;;;;;;4160514;28;20551;-80
2021/03/29 08:53:28;;;;;;;13.55;5.95;;;12.00;99.90;;;;;;4143933;28;20060;-80
2021/03/29 08:55:31;;;;;;;15.18;5.97;;;12.00;99.90;;;;;;4161266;28;20077;-80
2021/03/29 08:57:32;;;;;;;11.48;5.10;;;12.10;99.90;;;;;;4161409;28;20445;-79
2021/03/29 08:59:34;;;;;;;20.60;6.85;;;12.20;99.90;;;;;;4148988;28;20026;-79
2021/03/29 09:01:35;;;;;;;15.80;5.65;;;12.20;99.90;;;;;;4165507;28;20064;-79
2021/03/29 09:03:36;;;;;;;14.43;5.30;;;;;;;;;;4163494;28;20432;-80
2021/03/29 09:05:37;;;;;;;10.88;6.57;;;12.40;99.90;;;;;;4145343;28;20045;-80
2021/03/29 09:07:42;;;;;;;12.73;5.75;;;12.50;99.90;;;;;;4146105;28;20405;-80
2021/03/29 09:09:44;;;;;;;13.25;6.53;;;12.60;99.90;;;;;;4145540;28;20030;-80
2021/03/29 09:11:46;;;;;;;16.58;6.15;;;12.60;99.90;;;;;;4145589;28;20059;-80
2021/03/29 09:13:48;;;;;;;12.77;4.53;;;12.60;99.90;;;;;;4163708;28;20049;-79
2021/03/29 09:15:49;;;;;;;14.57;5.95;;;12.80;99.90;;;;;;4152541;28;20041;-80
2021/03/29 09:18:04;;;;;;;10.70;6.30;;;12.80;99.90;;;;;;4163277;28;20045;-80
2021/03/29 09:20:16;;;;;;;10.75;5.75;;;;;;;;;;4151154;28;20053;-79
2021/03/29 09:22:28;;;;;;;14.05;6.50;;;13.10;99.90;;;;;;4142184;28;20497;-80
2021/03/29 09:24:29;;;;;;;9.70;5.63;;;13.20;99.90;;;;;;4145406;28;20481;-80
2021/03/29 09:26:30;;;;;;;11.57;6.22;;;13.30;99.90;;;;;;4145387;28;20399;-79
2021/03/29 09:28:34;;;;;;;13.07;6.15;;;13.40;99.90;;;;;;4162817;28;20053;-79
2021/03/29 09:30:35;;;;;;;12.55;6.75;;;;;;;;;;4137683;28;20038;-78
2021/03/29 09:32:41;;;;;;;15.98;6.13;;;;;;;;;;4145330;28;20193;-79
2021/03/29 09:34:44;;;;;;;13.23;6.80;;;;;;;;;;4145337;28;20153;-80
2021/03/29 09:36:44;;;;;;;9.95;6.10;;;13.90;99.90;;;;;;4162788;28;20033;-79
2021/03/29 09:38:49;;;;;;;13.40;7.03;;;;;;;;;;4145310;28;20109;-79
2021/03/29 09:40:49;;;;;;;12.77;6.20;;;14.40;99.90;;;;;;4163417;28;20447;-79
2021/03/29 09:42:55;;;;;;;9.60;5.10;;;14.50;99.90;;;;;;4162571;28;20037;-79
2021/03/29 09:44:58;;;;;;;12.93;6.00;;;14.50;99.90;;;;;;4142210;28;20134;-79
2021/03/29 09:46:59;;;;;;;;;;;14.80;99.90;;;;;;4158391;28;20022;-80
2021/03/29 09:49:05;;;;;;;14.38;5.97;;;;;;;;;;4144558;28;19913;-79
2021/03/29 09:51:21;;;;;;;14.80;6.72;;;14.80;99.90;;;;;;4139321;28;20026;-81
2021/03/29 09:53:23;;;;;;;11.30;5.63;;;14.90;99.90;;;;;;4146349;28;20034;-80
2021/03/29 09:55:49;;;;;;;9.93;5.75;;;14.90;99.90;;;;;;4145045;28;20026;-79
2021/03/29 09:57:50;;;;;;;14.85;6.25;;;14.00;99.90;;;;;;4144944;28;20045;-80
2021/03/29 09:59:52;;;;;;;15.00;5.55;;;15.00;99.90;;;;;;4144604;28;20520;-80
2021/03/29 10:01:53;;;;;;;9.88;5.38;;;15.10;99.90;;;;;;4144970;28;20422;-80
2021/03/29 10:03:59;;;;;;;12.90;5.22;;;15.60;99.90;;;;;;4144945;28;20026;-81
2021/03/29 10:05:59;;;;;;;10.85;6.15;;;15.70;99.90;;;;;;4162388;28;20133;-79
2021/03/29 10:08:00;;;;;;;9.98;5.32;;;15.30;99.90;;;;;;4161460;28;20030;-80
2021/03/29 10:10:06;;;;;;;8.57;5.15;;;15.60;99.90;;;;;;4143744;28;20176;-80
2021/03/29 10:12:07;;;;;;;10.15;5.43;;;15.80;99.90;;;;;;4161994;28;20056;-79
2021/03/29 10:14:09;;;;;;;11.68;5.07;;;15.90;99.90;;;;;;4145100;28;20385;-79
2021/03/29 10:16:24;;;;;;;11.45;5.65;;;15.90;99.90;;;;;;4144267;28;20124;-79
2021/03/29 10:18:33;;;;;;;10.45;5.65;;;;;;;;;;4142632;28;20603;-80
2021/03/29 10:20:35;;;;;;;12.48;4.45;;;16.20;99.90;;;;;;4144528;28;20446;-79
2021/03/29 10:22:37;;;;;;;10.10;5.07;;;16.40;99.90;;;;;;4162369;28;20029;-80
2021/03/29 10:25:05;;;;;;;10.23;5.32;;;16.40;99.90;;;;;;4163024;28;20099;-79
2021/03/29 10:27:08;;;;;;;9.45;5.88;;;16.60;99.90;;;;;;4157854;28;20069;-79
2021/03/29 10:29:09;;;;;;;15.05;5.53;;;;;;;;;;4129138;28;20429;-79
2021/03/29 10:31:10;;;;;;;14.27;5.40;;;16.90;99.90;;;;;;4153767;28;20037;-79
2021/03/29 10:33:11;;;;;;;14.98;5.85;;;17.40;99.90;;;;;;4167945;28;20017;-77
2021/03/29 10:35:12;;;;;;;10.18;5.53;;;17.60;99.90;;;;;;4162577;28;20042;-78
2021/03/29 10:37:22;;;;;;;11.07;5.78;;;;;;;;;;4145076;28;20033;-79
2021/03/29 10:39:23;;;;;;;10.93;5.32;;;;;;;;;;4162403;28;20052;-78
2021/03/29 10:41:24;;;;;;;13.02;5.72;;;18.50;99.90;;;;;;4160000;28;20025;-79
2021/03/29 10:43:25;;;;;;;12.65;6.10;;;18.30;99.90;;;;;;4162328;28;20052;-78
2021/03/29 10:45:26;;;;;;;12.70;6.95;;;18.20;99.90;;;;;;4145058;28;21227;-78
2021/03/29 10:47:27;;;;;;;11.48;6.05;;;18.30;99.90;;;;;;4143963;28;20030;-78
2021/03/29 10:49:27;;;;;;;12.10;5.38;;;18.20;99.90;;;;;;4166965;28;20042;-79